Time;durP1;ratioP1;P1;durP2;ratioP2;P2;SDS_P1;SDS_P2;PMS_P1;PMS_P2;Temp;Humidity;BMP_temperature;BMP_pressure;BME280_temperature;BME280_humidity;BME280_pressure;Samples;Min_cycle;Max_cycle;Signal;HPM_P1;HPM_P2
2022/10/23 00:01:58;;;;;;;;;7.25;7.25;;;;;18.18;67.49;100782.97;5060895;28;65842;-78
2022/10/23 00:04:26;;;;;;;;;8.25;8.00;;;;;18.16;66.96;100784.84;5077746;28;46084;-78
2022/10/23 00:06:51;;;;;;;;;10.00;8.00;;;;;18.14;67.03;100773.56;5077478;28;45643;-78
2022/10/23 00:09:20;;;;;;;;;12.00;8.50;;;;;18.14;67.38;100769.13;5076864;28;51057;-78
2022/10/23 00:11:49;;;;;;;;;6.50;5.50;;;;;18.17;67.17;100770.75;5077727;28;45379;-78
2022/10/23 00:14:17;;;;;;;;;7.00;7.00;;;;;18.17;67.67;100768.97;5060038;28;46521;-77
2022/10/23 00:16:43;;;;;;;;;12.75;7.00;;;;;18.17;67.29;100763.69;5068810;28;45789;-78
2022/10/23 00:19:08;;;;;;;;;9.00;7.00;;;;;18.16;67.68;100759.38;5057220;28;45476;-78
2022/10/23 00:21:34;;;;;;;;;9.50;6.75;;;;;18.16;67.60;100750.59;5056246;28;71545;-78
2022/10/23 00:23:59;;;;;;;;;8.75;8.00;;;;;18.13;67.40;100749.00;5056771;28;47030;-78
2022/10/23 00:26:24;;;;;;;;;9.00;7.75;;;;;18.10;67.49;100745.72;5056544;28;64921;-78
2022/10/23 00:28:51;;;;;;;;;9.00;7.00;;;;;18.09;67.46;100739.59;5057175;28;45358;-78
2022/10/23 00:31:18;;;;;;;;;7.00;7.00;;;;;18.08;67.30;100744.97;5057340;28;45323;-79
2022/10/23 00:33:44;;;;;;;;;7.75;6.00;;;;;18.08;67.52;100747.59;5041967;28;45472;-78
2022/10/23 00:36:12;;;;;;;;;9.75;7.00;;;;;18.06;67.89;100742.41;5055958;28;72624;-78
2022/10/23 00:38:38;;;;;;;;;6.00;5.00;;;;;18.07;68.19;100743.25;5055689;28;45347;-78
2022/10/23 00:41:04;;;;;;;;;7.00;7.00;;;;;18.06;67.59;100734.50;5055782;28;45569;-77
2022/10/23 00:43:30;;;;;;;;;8.00;6.25;;;;;18.04;67.73;100735.56;5063264;28;45457;-78
2022/10/23 00:45:56;;;;;;;;;7.25;6.00;;;;;18.06;68.21;100731.88;5058324;28;45706;-78
2022/10/23 00:48:22;;;;;;;;;4.75;4.25;;;;;18.07;67.83;100730.09;5076294;28;70304;-78
2022/10/23 00:50:48;;;;;;;;;8.50;3.75;;;;;18.08;67.66;100726.53;5059007;28;45421;-78
2022/10/23 00:53:14;;;;;;;;;4.25;4.00;;;;;18.08;67.79;100724.72;5058166;28;46340;-78
2022/10/23 00:55:45;;;;;;;;;6.75;5.00;;;;;18.05;67.64;100724.91;5058634;28;45366;-78
2022/10/23 00:58:16;;;;;;;;;9.00;5.00;;;;;18.06;67.35;100713.44;5059629;28;45390;-78
2022/10/23 01:00:51;;;;;;;;;5.75;4.25;;;;;18.06;67.94;100705.53;5058925;28;45483;-78
2022/10/23 01:03:18;;;;;;;;;5.75;4.50;;;;;18.07;67.70;100694.06;5076942;28;45303;-78
2022/10/23 01:05:48;;;;;;;;;5.50;4.00;;;;;18.08;68.24;100679.94;5058725;28;45735;-78
2022/10/23 01:08:20;;;;;;;;;4.00;4.00;;;;;18.08;67.37;100682.59;5058526;28;45426;-78
2022/10/23 01:10:58;;;;;;;;;6.25;4.75;;;;;18.06;67.49;100681.84;5066771;28;45410;-78
2022/10/23 01:13:36;;;;;;;;;4.50;4.00;;;;;18.06;67.78;100688.91;5038579;28;45350;-78
2022/10/23 01:16:27;;;;;;;;;6.00;3.00;;;;;18.07;67.62;100677.41;5056557;28;45618;-78
2022/10/23 01:19:00;;;;;;;;;4.75;4.75;;;;;18.05;67.65;100664.31;5072769;28;45369;-78
2022/10/23 01:21:30;;;;;;;;;5.50;5.00;;;;;18.04;67.53;100670.56;5058178;28;45429;-78
2022/10/23 01:24:09;;;;;;;;;6.00;4.75;;;;;18.04;67.78;100667.06;5058443;28;45631;-77
2022/10/23 01:26:42;;;;;;;;;5.00;4.00;;;;;18.02;67.77;100661.91;5058485;28;45867;-78
2022/10/23 01:29:11;;;;;;;;;5.25;3.50;;;;;18.02;67.64;100654.00;5076832;28;45307;-77
2022/10/23 01:31:59;;;;;;;;;4.00;3.00;;;;;18.02;67.88;100651.38;5056390;28;45544;-78
2022/10/23 01:34:39;;;;;;;;;4.25;3.00;;;;;18.01;67.62;100652.28;5048187;28;49740;-78
2022/10/23 01:37:10;;;;;;;;;4.00;4.00;;;;;18.02;67.68;100642.63;5058005;28;45737;-78
2022/10/23 01:39:37;;;;;;;;;2.25;2.25;;;;;18.03;67.88;100644.31;5058116;28;45308;-78
2022/10/23 01:42:08;;;;;;;;;5.25;3.50;;;;;18.04;67.49;100646.84;5058416;28;45712;-78
2022/10/23 01:44:41;;;;;;;;;4.00;4.00;;;;;18.03;67.35;100644.31;5055406;28;46185;-78
2022/10/23 01:47:09;;;;;;;;;6.25;4.00;;;;;18.02;67.34;100651.38;5056052;28;45339;-78
2022/10/23 01:49:36;;;;;;;;;3.00;3.00;;;;;18.02;67.44;100648.72;5054548;28;45267;-78
2022/10/23 01:52:05;;;;;;;;;5.50;4.00;;;;;18.03;67.12;100646.94;5038012;28;45475;-78
2022/10/23 01:54:34;;;;;;;;;3.00;3.00;;;;;18.02;67.27;100635.56;5054565;28;47518;-78
2022/10/23 01:57:01;;;;;;;;;6.00;5.00;;;;;18.01;67.54;100643.56;5054680;28;45728;-78
2022/10/23 01:59:31;;;;;;;;;5.00;3.00;;;;;18.01;67.20;100628.59;5055125;28;45279;-79
2022/10/23 02:01:57;;;;;;;;;3.00;3.00;;;;;18.02;67.51;100622.41;5058093;28;45418;-78
2022/10/23 02:04:30;;;;;;;;;2.00;2.00;;;;;18.02;67.46;100621.56;5057570;28;45368;-78
2022/10/23 02:06:55;;;;;;;;;2.25;2.25;;;;;18.03;67.10;100620.59;5057783;28;45437;-77
2022/10/23 02:09:21;;;;;;;;;4.00;2.00;;;;;18.01;67.03;100604.88;5076197;28;45597;-78
2022/10/23 02:11:53;;;;;;;;;3.00;2.00;;;;;17.99;67.14;100607.59;5076020;28;45485;-79
2022/10/23 02:14:31;;;;;;;;;3.75;2.75;;;;;17.99;67.18;100604.13;5075391;28;46043;-78
2022/10/23 02:17:07;;;;;;;;;5.50;2.00;;;;;17.98;67.10;100599.84;5057156;28;45493;-79
2022/10/23 02:19:41;;;;;;;;;3.75;2.00;;;;;17.99;67.02;100604.13;5053851;28;45445;-78
2022/10/23 02:22:12;;;;;;;;;3.00;2.75;;;;;18.01;67.07;100596.16;5054534;28;45358;-78
2022/10/23 02:24:51;;;;;;;;;3.25;1.00;;;;;18.03;66.65;100596.91;5054325;28;45314;-78
2022/10/23 02:27:20;;;;;;;;;2.25;2.00;;;;;18.06;66.82;100592.28;5037964;28;45645;-78
2022/10/23 02:29:50;;;;;;;;;3.75;1.75;;;;;18.04;66.68;100574.91;5034046;28;45573;-78
2022/10/23 02:32:18;;;;;;;;;4.50;2.25;;;;;18.06;67.13;100571.22;5034002;28;45371;-77
2022/10/23 02:34:43;;;;;;;;;5.50;1.50;;;;;18.07;66.88;100578.19;5046172;28;46257;-78
2022/10/23 02:37:08;;;;;;;;;4.50;1.25;;;;;18.07;66.59;100567.66;5053212;28;71571;-78
2022/10/23 02:39:34;;;;;;;;;2.00;2.00;;;;;18.08;66.66;100561.44;5055434;28;45316;-78
2022/10/23 02:42:07;;;;;;;;;3.00;2.00;;;;;18.10;67.09;100558.69;5054455;28;70000;-78
2022/10/23 02:45:04;;;;;;;;;2.75;2.00;;;;;18.11;66.48;100561.25;5053772;28;47473;-77
2022/10/23 02:47:57;;;;;;;;;2.25;2.25;;;;;18.10;66.58;100551.63;5050490;28;45317;-77
2022/10/23 02:50:59;;;;;;;;;2.25;2.25;;;;;18.10;66.99;100551.63;5035077;28;45401;-78
2022/10/23 02:53:26;;;;;;;;;3.75;2.25;;;;;18.09;66.69;100555.22;5035071;28;45939;-78
2022/10/23 02:56:17;;;;;;;;;3.00;1.75;;;;;18.11;66.90;100549.88;5053838;28;47167;-78
2022/10/23 02:58:53;;;;;;;;;2.50;1.00;;;;;18.12;67.11;100535.75;5054022;28;45231;-78
2022/10/23 03:01:24;;;;;;;;;4.25;2.00;;;;;18.10;66.87;100530.56;5054103;28;45422;-78
2022/10/23 03:03:56;;;;;;;;;3.50;2.00;;;;;18.11;66.99;100528.78;5053674;28;45403;-78
2022/10/23 03:06:22;;;;;;;;;4.00;2.75;;;;;18.10;66.79;100517.41;5053686;28;47376;-77
2022/10/23 03:08:58;;;;;;;;;2.50;2.50;;;;;18.10;67.18;100520.03;5054470;28;45365;-77
2022/10/23 03:11:24;;;;;;;;;3.00;1.00;;;;;18.10;67.32;100513.94;5035027;28;45319;-78
2022/10/23 03:13:49;;;;;;;;;1.50;1.50;;;;;18.10;67.18;100517.41;5033674;28;45403;-78
2022/10/23 03:16:14;;;;;;;;;2.00;2.00;;;;;18.11;66.98;100507.72;5033707;28;75121;-78
2022/10/23 03:18:40;;;;;;;;;3.50;2.75;;;;;18.10;67.21;100504.22;5037947;28;67857;-78
2022/10/23 03:21:05;;;;;;;;;2.25;2.00;;;;;18.12;67.24;100502.34;5053900;28;69300;-78
2022/10/23 03:23:30;;;;;;;;;2.00;2.00;;;;;18.14;67.46;100502.25;5054775;28;45422;-78
2022/10/23 03:25:56;;;;;;;;;2.00;2.00;;;;;18.15;67.02;100511.84;5053658;28;76643;-78
2022/10/23 03:28:21;;;;;;;;;2.75;2.75;;;;;18.18;67.42;100503.72;5054104;28;64350;-79
2022/10/23 03:30:47;;;;;;;;;2.50;2.00;;;;;18.19;67.41;100498.38;5039064;28;63342;-78
2022/10/23 03:33:13;;;;;;;;;4.00;2.00;;;;;18.20;66.83;100501.84;5040424;28;45284;-78
2022/10/23 03:35:38;;;;;;;;;4.00;3.00;;;;;18.18;67.23;100491.44;5077395;28;71329;-77
2022/10/23 03:38:04;;;;;;;;;3.50;2.00;;;;;18.19;67.10;100490.47;5078393;28;45400;-78
2022/10/23 03:40:29;;;;;;;;;4.00;2.25;;;;;18.23;67.26;100483.22;5060207;28;45300;-78
2022/10/23 03:42:54;;;;;;;;;2.50;2.00;;;;;18.24;67.17;100492.81;5078055;28;45480;-78
2022/10/23 03:45:20;;;;;;;;;3.75;2.50;;;;;18.24;67.09;100492.81;5077577;28;66486;-78
2022/10/23 03:47:45;;;;;;;;;3.00;2.75;;;;;18.26;67.08;100493.56;5058815;28;71930;-78
2022/10/23 03:50:12;;;;;;;;;6.75;3.50;;;;;18.26;67.18;100496.19;5042985;28;45423;-78
2022/10/23 03:52:38;;;;;;;;;6.00;4.00;;;;;18.26;67.07;100493.56;5078159;28;45494;-78
2022/10/23 03:55:04;;;;;;;;;4.00;3.00;;;;;18.23;67.10;100490.28;5077987;28;46349;-77
2022/10/23 03:57:29;;;;;;;;;2.75;2.50;;;;;18.26;67.55;100495.34;5077986;28;45247;-78
2022/10/23 03:59:55;;;;;;;;;5.25;2.00;;;;;18.23;67.41;100477.94;5076989;28;64274;-78
2022/10/23 04:02:20;;;;;;;;;2.00;2.00;;;;;18.25;67.20;100481.31;5077349;28;59260;-77
2022/10/23 04:04:45;;;;;;;;;3.25;2.00;;;;;18.24;66.96;100477.00;5059678;28;47126;-78
2022/10/23 04:07:11;;;;;;;;;4.00;2.75;;;;;18.24;67.06;100490.19;5077938;28;45362;-77
2022/10/23 04:09:36;;;;;;;;;4.00;2.25;;;;;18.23;67.05;100487.63;5058685;28;68101;-78
2022/10/23 04:12:01;;;;;;;;;5.50;3.00;;;;;18.18;67.44;100488.78;5076887;28;69268;-78
2022/10/23 04:14:27;;;;;;;;;3.50;2.00;;;;;18.19;67.26;100492.25;5059218;28;46236;-77
2022/10/23 04:16:52;;;;;;;;;3.75;3.75;;;;;18.17;67.82;100486.25;5077586;28;45654;-78
2022/10/23 04:19:17;;;;;;;;;3.50;2.00;;;;;18.14;67.44;100497.81;5077528;28;45423;-78
2022/10/23 04:21:43;;;;;;;;;4.50;4.00;;;;;18.12;67.70;100493.59;5059801;28;45595;-77
2022/10/23 04:24:09;;;;;;;;;3.25;2.00;;;;;18.12;67.58;100488.31;5077551;28;46080;-78
2022/10/23 04:26:34;;;;;;;;;5.50;4.00;;;;;18.14;67.89;100491.72;5076560;28;73072;-78
2022/10/23 04:28:59;;;;;;;;;6.25;3.25;;;;;18.10;67.76;100484.94;5076377;28;62745;-77
2022/10/23 04:31:25;;;;;;;;;3.00;2.00;;;;;18.09;67.67;100499.06;5076522;28;68122;-78
2022/10/23 04:33:50;;;;;;;;;3.50;3.00;;;;;18.08;68.17;100502.66;5076679;28;64771;-78
2022/10/23 04:36:15;;;;;;;;;4.00;2.00;;;;;18.09;67.86;100499.06;5077342;28;46451;-78
2022/10/23 04:38:41;;;;;;;;;4.50;3.25;;;;;18.11;68.60;100498.03;5076818;28;60788;-78
2022/10/23 04:41:06;;;;;;;;;4.00;2.00;;;;;18.12;68.42;100491.81;5058142;28;63303;-78
2022/10/23 04:43:31;;;;;;;;;4.25;3.00;;;;;18.11;68.13;100476.97;5075558;28;75260;-80
2022/10/23 04:45:57;;;;;;;;;3.00;2.75;;;;;18.12;68.30;100472.53;5076345;28;71449;-80
2022/10/23 04:48:22;;;;;;;;;7.00;3.50;;;;;18.11;68.07;100471.69;5077432;28;45424;-80
2022/10/23 04:50:58;;;;;;;;;4.00;3.00;;;;;18.10;69.19;100469.16;5058962;28;45376;-78
2022/10/23 04:53:23;;;;;;;;;2.50;2.50;;;;;18.08;68.86;100492.94;5058960;28;47429;-79
2022/10/23 04:55:53;;;;;;;;;4.50;3.00;;;;;18.02;69.01;100532.03;5077096;28;45866;-78
2022/10/23 04:58:19;;;;;;;;;3.00;3.00;;;;;17.98;69.46;100547.16;5076838;28;45549;-78
2022/10/23 05:00:46;;;;;;;;;3.00;3.00;;;;;17.93;69.56;100534.28;5077050;28;45397;-77
2022/10/23 05:03:11;;;;;;;;;3.00;3.00;;;;;17.87;69.43;100531.19;5076999;28;47220;-78
2022/10/23 05:05:36;;;;;;;;;5.25;4.00;;;;;17.86;70.11;100518.97;5076942;28;45343;-78
2022/10/23 05:08:02;;;;;;;;;5.00;3.00;;;;;17.82;69.84;100499.84;5076090;28;69513;-78
2022/10/23 05:10:28;;;;;;;;;2.00;2.00;;;;;17.85;70.45;100472.50;5076458;28;57619;-78
2022/10/23 05:12:53;;;;;;;;;4.00;4.00;;;;;17.88;70.69;100477.56;5076463;28;45466;-78
2022/10/23 05:15:19;;;;;;;;;3.00;3.00;;;;;17.86;70.93;100488.19;5076046;28;71654;-78
2022/10/23 05:17:45;;;;;;;;;6.50;3.75;;;;;17.82;70.82;100484.03;5057692;28;69481;-78
2022/10/23 05:20:17;;;;;;;;;5.00;4.50;;;;;17.84;70.79;100490.06;5058494;28;45291;-78
2022/10/23 05:22:43;;;;;;;;;6.75;4.25;;;;;17.84;70.81;100492.69;5058672;28;47275;-78
2022/10/23 05:25:08;;;;;;;;;3.00;3.00;;;;;17.83;71.10;100479.63;5076695;28;45625;-79
2022/10/23 05:27:34;;;;;;;;;5.00;3.00;;;;;17.78;70.39;100477.28;5058047;28;47254;-78
2022/10/23 05:29:59;;;;;;;;;3.00;3.00;;;;;17.78;70.95;100462.34;5075603;28;68710;-78
2022/10/23 05:32:26;;;;;;;;;3.00;2.25;;;;;17.79;70.66;100461.41;5076481;28;45319;-78
2022/10/23 05:34:52;;;;;;;;;5.00;3.25;;;;;17.82;70.98;100460.34;5076472;28;45378;-78
2022/10/23 05:37:18;;;;;;;;;6.00;4.00;;;;;17.85;71.21;100446.16;5075741;28;68387;-78
2022/10/23 05:39:43;;;;;;;;;5.00;5.00;;;;;17.87;71.34;100433.78;5075687;28;70313;-78
2022/10/23 05:42:08;;;;;;;;;3.00;3.00;;;;;17.90;71.44;100423.03;5057401;28;57255;-78
2022/10/23 05:44:34;;;;;;;;;3.75;3.25;;;;;17.90;71.16;100423.88;5075479;28;68386;-79
2022/10/23 05:46:59;;;;;;;;;5.50;3.00;;;;;17.91;71.21;100416.84;5076524;28;45463;-78
2022/10/23 05:49:25;;;;;;;;;4.00;4.00;;;;;17.93;70.92;100413.16;5056974;28;72343;-78
2022/10/23 05:51:50;;;;;;;;;4.25;4.00;;;;;17.94;71.18;100408.72;5057126;28;46166;-78
2022/10/23 05:54:16;;;;;;;;;9.75;5.00;;;;;17.92;70.77;100416.75;5076161;28;45539;-78
2022/10/23 05:56:41;;;;;;;;;5.75;3.00;;;;;17.89;70.66;100413.47;5076069;28;45411;-78
2022/10/23 05:59:07;;;;;;;;;2.75;2.75;;;;;17.85;70.63;100409.31;5041237;28;45516;-78
2022/10/23 06:01:33;;;;;;;;;5.00;4.50;;;;;17.85;70.97;100409.31;5057828;28;47153;-78
2022/10/23 06:03:59;;;;;;;;;5.00;3.75;;;;;17.84;70.97;100413.69;5057873;28;49092;-78
2022/10/23 06:06:25;;;;;;;;;4.00;2.50;;;;;17.83;71.04;100409.41;5076204;28;45405;-78
2022/10/23 06:08:50;;;;;;;;;3.25;3.25;;;;;17.85;70.99;100412.81;5057213;28;59554;-78
2022/10/23 06:11:15;;;;;;;;;6.75;4.75;;;;;17.86;70.84;100414.47;5074645;28;69782;-78
2022/10/23 06:13:42;;;;;;;;;5.50;5.50;;;;;17.85;71.26;100415.44;5075757;28;47859;-78
2022/10/23 06:16:18;;;;;;;;;4.00;4.00;;;;;17.87;70.93;100410.91;5076084;28;45307;-78
2022/10/23 06:18:44;;;;;;;;;7.25;3.75;;;;;17.89;70.78;100400.28;5075500;28;45414;-78
2022/10/23 06:21:10;;;;;;;;;4.00;2.50;;;;;17.88;71.22;100412.59;5075480;28;46304;-78
2022/10/23 06:23:37;;;;;;;;;4.25;3.00;;;;;17.88;70.98;100409.97;5057358;28;45505;-78
2022/10/23 06:26:03;;;;;;;;;4.25;4.00;;;;;17.89;71.19;100411.66;5057434;28;45342;-78
2022/10/23 06:28:28;;;;;;;;;5.75;4.25;;;;;17.86;71.31;100408.38;5057786;28;45376;-78
2022/10/23 06:30:53;;;;;;;;;4.50;3.50;;;;;17.85;70.90;100415.44;5074447;28;75613;-78
2022/10/23 06:33:19;;;;;;;;;2.50;2.50;;;;;17.89;71.08;100416.94;5074707;28;69438;-78
2022/10/23 06:35:44;;;;;;;;;8.25;3.75;;;;;17.90;70.90;100404.59;5057675;28;45480;-78
2022/10/23 06:38:10;;;;;;;;;6.75;5.00;;;;;17.91;71.08;100401.88;5056352;28;45302;-77
2022/10/23 06:40:36;;;;;;;;;4.75;4.25;;;;;17.90;70.96;100404.59;5054579;28;56992;-76
2022/10/23 06:43:02;;;;;;;;;5.50;5.50;;;;;17.90;70.77;100402.81;5057267;28;45905;-76
2022/10/23 06:45:28;;;;;;;;;8.00;5.00;;;;;17.90;70.84;100394.91;5069435;28;45573;-76
2022/10/23 06:47:54;;;;;;;;;4.25;4.25;;;;;17.91;70.84;100401.88;5071355;28;45718;-77
2022/10/23 06:50:19;;;;;;;;;4.75;4.75;;;;;17.90;71.02;100394.91;5051019;28;46196;-77
2022/10/23 06:52:45;;;;;;;;;8.50;5.00;;;;;17.91;71.34;100388.72;5072846;28;68324;-76
2022/10/23 06:55:10;;;;;;;;;4.00;4.00;;;;;17.92;71.11;100392.16;5055081;28;45535;-76
2022/10/23 06:57:36;;;;;;;;;7.25;4.25;;;;;17.93;71.10;100392.06;5072256;28;70248;-75
2022/10/23 07:00:01;;;;;;;;;4.00;4.00;;;;;17.94;71.13;100388.50;5073794;28;73085;-77
2022/10/23 07:02:26;;;;;;;;;5.00;5.00;;;;;17.95;71.10;100371.75;5055823;28;45346;-77
2022/10/23 07:04:52;;;;;;;;;8.75;4.00;;;;;17.97;70.97;100383.03;5057648;28;68960;-77
2022/10/23 07:07:17;;;;;;;;;4.00;3.25;;;;;17.99;70.72;100375.88;5059022;28;49004;-77
2022/10/23 07:09:42;;;;;;;;;3.75;3.75;;;;;18.01;71.01;100378.41;5056934;28;74476;-77
2022/10/23 07:12:08;;;;;;;;;4.75;4.75;;;;;18.03;70.70;100373.88;5067207;28;61635;-76
2022/10/23 07:14:33;;;;;;;;;6.00;4.25;;;;;18.04;70.87;100361.56;5078347;28;45471;-76
2022/10/23 07:16:58;;;;;;;;;5.50;4.50;;;;;18.06;70.63;100357.88;5043519;28;54225;-76
2022/10/23 07:19:24;;;;;;;;;5.75;4.75;;;;;18.08;70.76;100368.31;5057030;28;72829;-76
2022/10/23 07:21:50;;;;;;;;;4.00;3.50;;;;;18.10;70.58;100384.88;5068703;28;66394;-76
2022/10/23 07:24:15;;;;;;;;;6.00;5.00;;;;;18.11;70.61;100374.22;5078352;28;45359;-76
2022/10/23 07:26:41;;;;;;;;;7.25;5.00;;;;;18.13;70.53;100356.53;5068798;28;45477;-77
2022/10/23 07:29:06;;;;;;;;;8.00;5.00;;;;;18.18;70.43;100350.94;5059667;28;45876;-77
2022/10/23 07:31:32;;;;;;;;;4.00;2.00;;;;;18.22;70.35;100351.59;5074399;28;45513;-75
2022/10/23 07:33:57;;;;;;;;;6.00;4.00;;;;;18.25;70.24;100361.94;5046688;28;45456;-76
2022/10/23 07:36:23;;;;;;;;;5.50;5.50;;;;;18.26;70.21;100355.72;5077356;28;45353;-76
2022/10/23 07:38:49;;;;;;;;;3.00;3.00;;;;;18.29;70.16;100351.06;5054633;28;52243;-76
2022/10/23 07:41:15;;;;;;;;;5.75;5.75;;;;;18.32;70.05;100342.13;5073644;28;45493;-77
2022/10/23 07:43:40;;;;;;;;;6.50;4.00;;;;;18.33;70.05;100344.66;5078178;28;45431;-77
2022/10/23 07:46:08;;;;;;;;;6.00;5.00;;;;;18.35;69.83;100355.09;5070575;28;51084;-76
2022/10/23 07:48:34;;;;;;;;;6.00;5.50;;;;;18.36;69.65;100357.63;5057985;28;45359;-75
2022/10/23 07:51:02;;;;;;;;;5.00;5.00;;;;;18.39;70.24;100351.31;5040583;28;45406;-76
2022/10/23 07:53:28;;;;;;;;;5.50;4.50;;;;;18.46;69.84;100346.44;5068369;28;45247;-77
2022/10/23 07:55:54;;;;;;;;;6.75;5.50;;;;;18.50;70.09;100340.88;5077938;28;45524;-76
2022/10/23 07:58:20;;;;;;;;;8.00;4.25;;;;;18.55;70.20;100344.06;5077712;28;47254;-76
2022/10/23 08:00:51;;;;;;;;;6.00;5.00;;;;;18.56;69.38;100340.44;5078021;27;45287;-75
2022/10/23 08:03:17;;;;;;;;;6.75;5.00;;;;;18.58;68.98;100340.34;5076867;28;45514;-76
2022/10/23 08:05:42;;;;;;;;;5.75;4.75;;;;;18.58;69.46;100335.06;5077886;27;45483;-76
2022/10/23 08:08:08;;;;;;;;;5.50;5.00;;;;;18.59;69.09;100342.06;5076626;27;65213;-75
2022/10/23 08:10:33;;;;;;;;;5.00;4.00;;;;;18.62;69.21;100339.19;5076793;27;70771;-75
2022/10/23 08:12:58;;;;;;;;;5.75;4.75;;;;;18.66;68.80;100334.53;5058911;28;61335;-75
2022/10/23 08:15:24;;;;;;;;;5.50;5.00;;;;;18.67;68.99;100331.81;5073253;28;45589;-75
2022/10/23 08:17:49;;;;;;;;;9.00;6.00;;;;;18.70;68.53;100333.38;5076614;28;75513;-74
2022/10/23 08:20:15;;;;;;;;;6.25;6.25;;;;;18.74;68.60;100343.63;5077400;28;45522;-75
2022/10/23 08:22:40;;;;;;;;;4.75;4.75;;;;;18.75;68.41;100331.28;5077381;28;45745;-74
2022/10/23 08:25:05;;;;;;;;;5.00;5.00;;;;;18.81;68.05;100327.41;5058429;28;71288;-75
2022/10/23 08:27:31;;;;;;;;;6.75;4.75;;;;;18.85;67.97;100320.94;5077399;28;46245;-75
2022/10/23 08:29:56;;;;;;;;;5.00;4.50;;;;;18.89;67.75;100319.81;5077479;28;45353;-75
2022/10/23 08:32:21;;;;;;;;;4.50;4.50;;;;;18.93;67.73;100311.56;5076677;28;62924;-75
2022/10/23 08:34:47;;;;;;;;;6.50;5.50;;;;;18.98;67.43;100313.88;5058239;28;70391;-75
2022/10/23 08:37:12;;;;;;;;;4.75;4.75;;;;;19.01;67.26;100308.38;5058839;28;46263;-75
2022/10/23 08:39:37;;;;;;;;;6.00;6.00;;;;;19.03;67.40;100308.25;5058182;28;73833;-75
2022/10/23 08:42:03;;;;;;;;;6.75;4.00;;;;;19.09;67.27;100313.97;5076592;28;65325;-75
2022/10/23 08:44:35;;;;;;;;;6.50;4.25;;;;;19.13;66.57;100309.31;5059041;28;45671;-75
2022/10/23 08:47:33;;;;;;;;;8.00;5.00;;;;;19.17;66.92;100307.25;5058885;28;46133;-75
2022/10/23 08:50:32;;;;;;;;;5.25;5.25;;;;;19.20;66.79;100317.59;5039753;28;45682;-75
2022/10/23 08:53:19;;;;;;;;;4.00;4.00;;;;;19.27;65.84;100324.13;5076715;28;45396;-75
2022/10/23 08:55:51;;;;;;;;;6.75;4.00;;;;;19.30;65.45;100316.84;5077183;28;45441;-74
2022/10/23 08:58:35;;;;;;;;;5.25;4.75;;;;;19.38;65.68;100320.72;5058711;28;46314;-75
2022/10/23 09:01:06;;;;;;;;;5.25;5.00;;;;;19.45;65.39;100311.41;5058913;28;45685;-75
2022/10/23 09:03:31;;;;;;;;;4.50;3.50;;;;;19.56;65.10;100308.81;5058734;28;45272;-75
2022/10/23 09:06:07;;;;;;;;;6.75;6.00;;;;;19.71;65.47;100298.94;5075945;28;66308;-75
2022/10/23 09:08:38;;;;;;;;;5.00;4.00;;;;;19.79;63.99;100312.44;5058657;28;46278;-75
2022/10/23 09:11:10;;;;;;;;;5.50;4.00;;;;;19.85;64.71;100314.59;5058668;28;45650;-75
2022/10/23 09:13:35;;;;;;;;;5.75;3.50;;;;;19.87;64.02;100325.06;5076977;28;45487;-75
2022/10/23 09:16:09;;;;;;;;;4.00;1.00;;;;;19.89;63.62;100320.50;5076970;28;45275;-75
2022/10/23 09:18:35;;;;;;;;;7.75;4.50;;;;;19.91;63.25;100314.16;5076301;28;46273;-75
2022/10/23 09:21:01;;;;;;;;;5.25;5.25;;;;;19.93;62.95;100316.69;5075344;28;72327;-75
2022/10/23 09:23:26;;;;;;;;;6.00;3.75;;;;;19.98;63.02;100311.88;5058687;28;45575;-75
2022/10/23 09:25:55;;;;;;;;;6.00;4.50;;;;;20.01;63.27;100316.94;5075480;28;67577;-75
2022/10/23 09:28:24;;;;;;;;;7.25;5.00;;;;;20.09;62.91;100308.44;5058087;28;47118;-75
2022/10/23 09:30:51;;;;;;;;;6.50;6.00;;;;;20.10;62.49;100300.41;5058315;28;45795;-75
2022/10/23 09:33:24;;;;;;;;;8.00;6.00;;;;;20.18;62.81;100301.63;5076663;28;45428;-75
2022/10/23 09:36:12;;;;;;;;;4.00;3.00;;;;;20.27;62.67;100298.28;5076702;28;45405;-75
2022/10/23 09:38:49;;;;;;;;;5.00;4.00;;;;;20.33;62.28;100294.31;5063174;28;47017;-74
2022/10/23 09:41:38;;;;;;;;;5.75;4.25;;;;;20.44;61.74;100294.34;5076403;28;45734;-75
2022/10/23 09:44:07;;;;;;;;;5.00;2.00;;;;;20.53;61.56;100287.50;5047578;28;45389;-75
2022/10/23 09:46:52;;;;;;;;;3.50;3.50;;;;;20.64;61.75;100293.66;5076589;28;45379;-75
2022/10/23 09:49:26;;;;;;;;;4.75;4.75;;;;;20.74;61.12;100299.06;5057616;28;46805;-75
2022/10/23 09:51:58;;;;;;;;;5.00;4.00;;;;;20.87;60.31;100299.75;5076128;28;45657;-75
2022/10/23 09:54:24;;;;;;;;;5.50;3.25;;;;;20.96;60.65;100300.03;5058062;28;45460;-75
2022/10/23 09:56:49;;;;;;;;;5.50;4.25;;;;;21.10;60.50;100294.47;5076027;28;45409;-76
2022/10/23 09:59:23;;;;;;;;;4.50;4.00;;;;;21.24;60.37;100282.75;5056889;28;75056;-75
2022/10/23 10:01:58;;;;;;;;;8.50;4.50;;;;;21.34;59.84;100288.13;5061731;28;45915;-76
2022/10/23 10:04:38;;;;;;;;;4.00;3.00;;;;;21.38;59.62;100290.44;5057343;28;45562;-76
2022/10/23 10:07:19;;;;;;;;;5.00;3.75;;;;;21.39;59.30;100283.31;5057951;28;45351;-75
2022/10/23 10:09:45;;;;;;;;;5.50;3.50;;;;;21.42;58.66;100275.97;5055887;28;45325;-76
2022/10/23 10:12:19;;;;;;;;;8.00;4.75;;;;;21.51;58.97;100287.66;5054798;28;45676;-76
2022/10/23 10:14:50;;;;;;;;;7.00;4.00;;;;;21.59;58.68;100287.00;5074936;28;45310;-75
2022/10/23 10:17:21;;;;;;;;;5.50;5.00;;;;;21.71;58.61;100274.56;5055503;28;45318;-75
2022/10/23 10:20:04;;;;;;;;;6.50;4.00;;;;;21.84;58.29;100270.78;5055097;28;46190;-75
2022/10/23 10:22:52;;;;;;;;;3.50;3.00;;;;;21.99;57.59;100270.44;5072421;27;45790;-76
2022/10/23 10:25:35;;;;;;;;;4.25;3.75;;;;;22.10;57.42;100262.44;5056816;28;45434;-75
2022/10/23 10:28:20;;;;;;;;;3.50;3.25;;;;;22.24;56.77;100258.59;5052994;28;45387;-75
2022/10/23 10:30:59;;;;;;;;;3.00;2.75;;;;;22.39;55.68;100267.91;4992886;28;46129;-75
2022/10/23 10:33:35;;;;;;;;;4.00;3.50;;;;;22.57;56.02;100280.56;4998627;28;45501;-76
2022/10/23 10:36:28;;;;;;;;;6.75;5.00;;;;;22.70;55.69;100270.56;4998683;28;45465;-75
2022/10/23 10:39:02;;;;;;;;;3.00;3.00;;;;;22.75;54.54;100271.00;4956112;28;45313;-75
2022/10/23 10:41:35;;;;;;;;;5.00;4.00;;;;;22.85;55.03;100278.16;4957093;28;46229;-75
2022/10/23 10:44:18;;;;;;;;;6.25;4.00;;;;;23.06;55.27;100273.63;4947167;28;45618;-75
2022/10/23 10:47:05;;;;;;;;;4.00;4.00;;;;;23.24;54.71;100271.16;4947897;28;45498;-75
2022/10/23 10:49:38;;;;;;;;;3.75;3.00;;;;;23.38;53.59;100270.75;4938212;28;45407;-75
2022/10/23 10:52:19;;;;;;;;;3.00;2.75;;;;;23.60;54.11;100246.69;4938028;28;46262;-75
2022/10/23 10:55:08;;;;;;;;;4.00;3.50;;;;;23.82;53.47;100248.25;4938843;28;45726;-74
2022/10/23 10:57:39;;;;;;;;;5.00;4.50;;;;;24.00;52.23;100240.41;4941013;28;47157;-75
2022/10/23 11:00:14;;;;;;;;;5.25;3.00;;;;;24.15;52.20;100242.44;4938131;28;45630;-75
2022/10/23 11:02:47;;;;;;;;;2.75;2.75;;;;;24.42;51.86;100254.09;4938260;28;46353;-75
2022/10/23 11:05:20;;;;;;;;;5.25;3.25;;;;;25.10;51.10;100247.63;4947942;28;45754;-75
2022/10/23 11:07:59;;;;;;;;;3.00;3.00;;;;;26.13;48.01;100242.69;4979101;28;45449;-74
2022/10/23 11:10:26;;;;;;;;;5.25;3.50;;;;;26.85;47.29;100245.03;4999897;28;45392;-75
2022/10/23 11:12:51;;;;;;;;;5.25;4.00;;;;;27.74;45.86;100232.81;4983495;28;45446;-75
2022/10/23 11:15:21;;;;;;;;;4.50;3.75;;;;;28.55;44.86;100228.31;5018999;27;45470;-75
2022/10/23 11:17:54;;;;;;;;;3.75;3.25;;;;;29.62;44.42;100230.31;5073436;28;45366;-75
2022/10/23 11:20:51;;;;;;;;;3.00;3.00;;;;;31.48;39.05;100220.34;5050483;28;45322;-75
2022/10/23 11:23:38;;;;;;;;;3.00;2.00;;;;;32.56;37.49;100214.63;5076732;28;46096;-75
2022/10/23 11:26:32;;;;;;;;;3.50;2.00;;;;;32.86;34.74;100214.38;5087621;27;45317;-75
2022/10/23 11:29:13;;;;;;;;;2.00;2.00;;;;;32.09;36.55;100205.50;5099096;27;45450;-75
2022/10/23 11:31:57;;;;;;;;;2.50;2.25;;;;;31.90;34.87;100201.66;5076772;28;45454;-76
2022/10/23 11:34:34;;;;;;;;;3.50;2.50;;;;;32.66;35.06;100204.34;5039786;28;48293;-75
2022/10/23 11:37:00;;;;;;;;;4.75;2.25;;;;;32.57;33.48;100213.59;5075857;28;45841;-75